sensor_id;sensor_type;location;lat;lon;timestamp;P1;durP1;ratioP1;P2;durP2;ratioP2
41719;SDS011;27405;53.316;-6.294;2023-10-08T00:02:26;35.47;;;11.57;;
41719;SDS011;27405;53.316;-6.294;2023-10-08T00:04:53;36.78;;;12.27;;
41719;SDS011;27405;53.316;-6.294;2023-10-08T00:07:22;32.20;;;12.15;;
41719;SDS011;27405;53.316;-6.294;2023-10-08T00:09:53;34.50;;;12.18;;
41719;SDS011;27405;53.316;-6.294;2023-10-08T00:12:19;41.17;;;13.35;;
41719;SDS011;27405;53.316;-6.294;2023-10-08T00:14:48;33.33;;;11.65;;
41719;SDS011;27405;53.316;-6.294;2023-10-08T00:17:17;38.05;;;13.23;;
41719;SDS011;27405;53.316;-6.294;2023-10-08T00:19:43;33.28;;;11.77;;
41719;SDS011;27405;53.316;-6.294;2023-10-08T00:22:10;33.78;;;12.30;;
41719;SDS011;27405;53.316;-6.294;2023-10-08T00:24:41;37.10;;;12.50;;
41719;SDS011;27405;53.316;-6.294;2023-10-08T00:27:08;32.42;;;11.93;;
41719;SDS011;27405;53.316;-6.294;2023-10-08T00:29:34;34.53;;;11.73;;
41719;SDS011;27405;53.316;-6.294;2023-10-08T00:35:27;34.60;;;11.80;;
41719;SDS011;27405;53.316;-6.294;2023-10-08T00:37:53;35.92;;;12.70;;
41719;SDS011;27405;53.316;-6.294;2023-10-08T00:40:35;36.25;;;12.30;;
41719;SDS011;27405;53.316;-6.294;2023-10-08T00:43:03;34.03;;;11.48;;
41719;SDS011;27405;53.316;-6.294;2023-10-08T00:45:35;31.70;;;11.65;;
41719;SDS011;27405;53.316;-6.294;2023-10-08T00:48:09;32.70;;;11.98;;
41719;SDS011;27405;53.316;-6.294;2023-10-08T00:50:42;34.67;;;12.07;;
41719;SDS011;27405;53.316;-6.294;2023-10-08T00:53:11;31.58;;;12.52;;
41719;SDS011;27405;53.316;-6.294;2023-10-08T00:55:47;35.92;;;13.55;;
41719;SDS011;27405;53.316;-6.294;2023-10-08T00:58:29;34.67;;;13.02;;
41719;SDS011;27405;53.316;-6.294;2023-10-08T01:00:59;36.60;;;13.38;;
41719;SDS011;27405;53.316;-6.294;2023-10-08T01:07:15;35.78;;;12.57;;
41719;SDS011;27405;53.316;-6.294;2023-10-08T01:09:42;33.28;;;12.10;;
41719;SDS011;27405;53.316;-6.294;2023-10-08T01:12:13;31.98;;;12.60;;
41719;SDS011;27405;53.316;-6.294;2023-10-08T01:14:46;33.53;;;13.02;;
41719;SDS011;27405;53.316;-6.294;2023-10-08T01:17:18;34.50;;;12.57;;
41719;SDS011;27405;53.316;-6.294;2023-10-08T01:23:14;34.88;;;11.85;;
41719;SDS011;27405;53.316;-6.294;2023-10-08T01:25:42;33.92;;;12.23;;
41719;SDS011;27405;53.316;-6.294;2023-10-08T01:28:16;37.63;;;13.93;;
41719;SDS011;27405;53.316;-6.294;2023-10-08T01:30:48;31.80;;;12.32;;
41719;SDS011;27405;53.316;-6.294;2023-10-08T01:36:41;30.00;;;12.43;;
41719;SDS011;27405;53.316;-6.294;2023-10-08T02:08:14;32.85;;;11.98;;
41719;SDS011;27405;53.316;-6.294;2023-10-08T02:10:44;37.50;;;12.20;;
41719;SDS011;27405;53.316;-6.294;2023-10-08T02:16:40;33.50;;;11.10;;
41719;SDS011;27405;53.316;-6.294;2023-10-08T02:20:03;30.95;;;11.77;;
41719;SDS011;27405;53.316;-6.294;2023-10-08T02:22:35;37.33;;;11.45;;
41719;SDS011;27405;53.316;-6.294;2023-10-08T02:25:22;32.28;;;12.10;;
41719;SDS011;27405;53.316;-6.294;2023-10-08T02:39:55;35.63;;;12.45;;
41719;SDS011;27405;53.316;-6.294;2023-10-08T02:53:33;29.17;;;10.70;;
41719;SDS011;27405;53.316;-6.294;2023-10-08T02:58:47;33.67;;;10.85;;
41719;SDS011;27405;53.316;-6.294;2023-10-08T03:07:58;32.20;;;11.90;;
41719;SDS011;27405;53.316;-6.294;2023-10-08T03:10:25;30.13;;;11.38;;
41719;SDS011;27405;53.316;-6.294;2023-10-08T03:20:44;31.13;;;11.80;;
41719;SDS011;27405;53.316;-6.294;2023-10-08T03:23:14;29.60;;;11.27;;
41719;SDS011;27405;53.316;-6.294;2023-10-08T03:26:00;35.13;;;11.20;;
41719;SDS011;27405;53.316;-6.294;2023-10-08T03:28:36;31.20;;;11.35;;
41719;SDS011;27405;53.316;-6.294;2023-10-08T03:32:00;31.02;;;11.57;;
41719;SDS011;27405;53.316;-6.294;2023-10-08T03:34:31;32.20;;;11.82;;
41719;SDS011;27405;53.316;-6.294;2023-10-08T03:45:17;31.60;;;11.35;;
41719;SDS011;27405;53.316;-6.294;2023-10-08T03:58:28;32.15;;;11.13;;
41719;SDS011;27405;53.316;-6.294;2023-10-08T04:07:32;26.92;;;11.55;;
41719;SDS011;27405;53.316;-6.294;2023-10-08T04:10:29;29.77;;;11.23;;
41719;SDS011;27405;53.316;-6.294;2023-10-08T04:13:14;32.90;;;11.10;;
41719;SDS011;27405;53.316;-6.294;2023-10-08T04:24:00;25.38;;;10.50;;
41719;SDS011;27405;53.316;-6.294;2023-10-08T04:30:46;30.52;;;10.40;;
41719;SDS011;27405;53.316;-6.294;2023-10-08T04:33:17;31.75;;;12.50;;
41719;SDS011;27405;53.316;-6.294;2023-10-08T04:38:22;29.98;;;11.07;;
41719;SDS011;27405;53.316;-6.294;2023-10-08T04:41:05;31.45;;;11.43;;
41719;SDS011;27405;53.316;-6.294;2023-10-08T04:43:34;23.88;;;10.68;;
41719;SDS011;27405;53.316;-6.294;2023-10-08T04:46:38;28.63;;;11.10;;
41719;SDS011;27405;53.316;-6.294;2023-10-08T04:51:56;32.50;;;12.55;;
41719;SDS011;27405;53.316;-6.294;2023-10-08T04:54:41;27.30;;;11.10;;
41719;SDS011;27405;53.316;-6.294;2023-10-08T05:01:50;33.45;;;12.93;;
41719;SDS011;27405;53.316;-6.294;2023-10-08T05:04:35;27.15;;;11.32;;
41719;SDS011;27405;53.316;-6.294;2023-10-08T05:07:17;28.65;;;10.98;;
41719;SDS011;27405;53.316;-6.294;2023-10-08T05:09:49;28.27;;;11.80;;
41719;SDS011;27405;53.316;-6.294;2023-10-08T05:12:28;31.45;;;12.07;;
41719;SDS011;27405;53.316;-6.294;2023-10-08T05:15:03;30.75;;;12.43;;
41719;SDS011;27405;53.316;-6.294;2023-10-08T05:17:42;37.05;;;12.77;;
41719;SDS011;27405;53.316;-6.294;2023-10-08T05:20:49;37.22;;;13.82;;
41719;SDS011;27405;53.316;-6.294;2023-10-08T05:23:18;29.17;;;11.90;;
41719;SDS011;27405;53.316;-6.294;2023-10-08T05:25:54;31.98;;;13.23;;
41719;SDS011;27405;53.316;-6.294;2023-10-08T05:28:32;29.10;;;12.20;;
41719;SDS011;27405;53.316;-6.294;2023-10-08T05:31:11;30.60;;;12.80;;
41719;SDS011;27405;53.316;-6.294;2023-10-08T05:33:58;30.73;;;12.57;;
41719;SDS011;27405;53.316;-6.294;2023-10-08T05:36:30;32.95;;;12.88;;
41719;SDS011;27405;53.316;-6.294;2023-10-08T05:39:14;29.02;;;11.25;;
41719;SDS011;27405;53.316;-6.294;2023-10-08T05:41:49;33.50;;;11.95;;
41719;SDS011;27405;53.316;-6.294;2023-10-08T05:44:20;32.20;;;12.50;;
41719;SDS011;27405;53.316;-6.294;2023-10-08T05:46:46;32.38;;;12.68;;
41719;SDS011;27405;53.316;-6.294;2023-10-08T05:50:04;33.55;;;14.27;;
41719;SDS011;27405;53.316;-6.294;2023-10-08T05:52:42;31.23;;;12.57;;
41719;SDS011;27405;53.316;-6.294;2023-10-08T05:55:18;30.98;;;12.45;;
41719;SDS011;27405;53.316;-6.294;2023-10-08T06:00:43;30.63;;;12.27;;
41719;SDS011;27405;53.316;-6.294;2023-10-08T06:03:16;28.48;;;12.07;;
41719;SDS011;27405;53.316;-6.294;2023-10-08T06:06:02;30.73;;;12.75;;
41719;SDS011;27405;53.316;-6.294;2023-10-08T06:08:38;30.10;;;12.85;;
41719;SDS011;27405;53.316;-6.294;2023-10-08T06:11:15;36.70;;;12.85;;
41719;SDS011;27405;53.316;-6.294;2023-10-08T06:14:01;30.88;;;12.75;;
41719;SDS011;27405;53.316;-6.294;2023-10-08T06:16:48;33.22;;;12.73;;
41719;SDS011;27405;53.316;-6.294;2023-10-08T06:19:31;32.20;;;13.05;;
41719;SDS011;27405;53.316;-6.294;2023-10-08T06:21:57;31.15;;;11.93;;
41719;SDS011;27405;53.316;-6.294;2023-10-08T06:24:23;25.83;;;10.95;;
41719;SDS011;27405;53.316;-6.294;2023-10-08T06:30:14;30.17;;;12.27;;
41719;SDS011;27405;53.316;-6.294;2023-10-08T06:35:10;24.98;;;11.43;;
41719;SDS011;27405;53.316;-6.294;2023-10-08T06:37:44;25.42;;;11.43;;
41719;SDS011;27405;53.316;-6.294;2023-10-08T06:40:15;30.25;;;12.18;;
41719;SDS011;27405;53.316;-6.294;2023-10-08T06:43:08;28.23;;;11.02;;
41719;SDS011;27405;53.316;-6.294;2023-10-08T06:45:49;26.35;;;11.40;;
41719;SDS011;27405;53.316;-6.294;2023-10-08T06:48:23;25.88;;;11.82;;
41719;SDS011;27405;53.316;-6.294;2023-10-08T06:51:19;26.45;;;11.45;;
41719;SDS011;27405;53.316;-6.294;2023-10-08T06:53:47;27.63;;;11.50;;
41719;SDS011;27405;53.316;-6.294;2023-10-08T06:56:14;24.85;;;10.23;;
41719;SDS011;27405;53.316;-6.294;2023-10-08T06:58:43;20.70;;;10.38;;
41719;SDS011;27405;53.316;-6.294;2023-10-08T07:01:13;26.67;;;11.27;;
41719;SDS011;27405;53.316;-6.294;2023-10-08T07:03:48;24.20;;;10.82;;
41719;SDS011;27405;53.316;-6.294;2023-10-08T07:06:15;24.70;;;10.43;;
41719;SDS011;27405;53.316;-6.294;2023-10-08T07:08:42;29.30;;;11.20;;
41719;SDS011;27405;53.316;-6.294;2023-10-08T07:11:12;23.88;;;10.90;;
41719;SDS011;27405;53.316;-6.294;2023-10-08T07:13:40;23.90;;;11.07;;
41719;SDS011;27405;53.316;-6.294;2023-10-08T07:16:07;29.48;;;11.75;;
41719;SDS011;27405;53.316;-6.294;2023-10-08T07:21:20;25.70;;;11.20;;
41719;SDS011;27405;53.316;-6.294;2023-10-08T07:24:15;24.95;;;10.20;;
41719;SDS011;27405;53.316;-6.294;2023-10-08T07:33:22;24.70;;;10.27;;
41719;SDS011;27405;53.316;-6.294;2023-10-08T07:35:50;24.83;;;11.05;;
41719;SDS011;27405;53.316;-6.294;2023-10-08T07:38:25;24.27;;;11.07;;
41719;SDS011;27405;53.316;-6.294;2023-10-08T07:40:55;26.88;;;10.77;;
41719;SDS011;27405;53.316;-6.294;2023-10-08T07:43:21;23.08;;;10.57;;
41719;SDS011;27405;53.316;-6.294;2023-10-08T07:45:48;26.23;;;11.32;;
41719;SDS011;27405;53.316;-6.294;2023-10-08T07:48:19;25.15;;;10.95;;
41719;SDS011;27405;53.316;-6.294;2023-10-08T07:51:16;24.90;;;10.32;;
41719;SDS011;27405;53.316;-6.294;2023-10-08T08:01:18;21.15;;;10.35;;
41719;SDS011;27405;53.316;-6.294;2023-10-08T08:03:46;26.08;;;10.65;;
41719;SDS011;27405;53.316;-6.294;2023-10-08T08:06:14;22.87;;;10.90;;
41719;SDS011;27405;53.316;-6.294;2023-10-08T08:08:40;22.35;;;10.60;;
41719;SDS011;27405;53.316;-6.294;2023-10-08T08:11:12;24.45;;;10.60;;
41719;SDS011;27405;53.316;-6.294;2023-10-08T08:16:18;24.85;;;11.23;;
41719;SDS011;27405;53.316;-6.294;2023-10-08T08:18:51;22.25;;;10.60;;
41719;SDS011;27405;53.316;-6.294;2023-10-08T08:21:22;24.63;;;10.48;;
41719;SDS011;27405;53.316;-6.294;2023-10-08T08:26:27;24.17;;;10.95;;
41719;SDS011;27405;53.316;-6.294;2023-10-08T08:29:15;26.08;;;11.13;;
41719;SDS011;27405;53.316;-6.294;2023-10-08T08:31:46;23.33;;;11.45;;
41719;SDS011;27405;53.316;-6.294;2023-10-08T08:34:18;21.20;;;10.07;;
41719;SDS011;27405;53.316;-6.294;2023-10-08T08:39:14;18.98;;;8.90;;
41719;SDS011;27405;53.316;-6.294;2023-10-08T08:45:25;17.52;;;8.23;;
41719;SDS011;27405;53.316;-6.294;2023-10-08T08:52:13;13.02;;;5.68;;
41719;SDS011;27405;53.316;-6.294;2023-10-08T08:57:17;13.90;;;4.55;;
41719;SDS011;27405;53.316;-6.294;2023-10-08T09:02:23;12.15;;;4.40;;
41719;SDS011;27405;53.316;-6.294;2023-10-08T09:15:11;10.02;;;3.88;;
41719;SDS011;27405;53.316;-6.294;2023-10-08T09:18:47;8.70;;;3.20;;
41719;SDS011;27405;53.316;-6.294;2023-10-08T09:21:15;11.07;;;3.90;;
41719;SDS011;27405;53.316;-6.294;2023-10-08T09:28:01;11.30;;;3.90;;
41719;SDS011;27405;53.316;-6.294;2023-10-08T09:30:32;10.65;;;3.63;;
41719;SDS011;27405;53.316;-6.294;2023-10-08T09:33:07;9.98;;;3.80;;
41719;SDS011;27405;53.316;-6.294;2023-10-08T09:38:59;8.80;;;3.60;;
41719;SDS011;27405;53.316;-6.294;2023-10-08T09:41:49;7.43;;;3.40;;
41719;SDS011;27405;53.316;-6.294;2023-10-08T09:44:18;11.50;;;4.18;;
41719;SDS011;27405;53.316;-6.294;2023-10-08T09:46:47;10.50;;;3.80;;
41719;SDS011;27405;53.316;-6.294;2023-10-08T09:52:40;7.57;;;3.78;;
41719;SDS011;27405;53.316;-6.294;2023-10-08T09:55:15;9.90;;;3.45;;
41719;SDS011;27405;53.316;-6.294;2023-10-08T09:57:43;8.75;;;3.55;;
41719;SDS011;27405;53.316;-6.294;2023-10-08T10:00:09;9.75;;;3.63;;
41719;SDS011;27405;53.316;-6.294;2023-10-08T10:02:55;10.00;;;3.38;;
41719;SDS011;27405;53.316;-6.294;2023-10-08T10:05:29;8.35;;;3.33;;
41719;SDS011;27405;53.316;-6.294;2023-10-08T10:07:59;9.80;;;3.63;;
41719;SDS011;27405;53.316;-6.294;2023-10-08T10:10:27;6.03;;;2.97;;
41719;SDS011;27405;53.316;-6.294;2023-10-08T10:12:59;10.23;;;3.75;;
41719;SDS011;27405;53.316;-6.294;2023-10-08T10:15:28;10.57;;;4.13;;
41719;SDS011;27405;53.316;-6.294;2023-10-08T10:20:59;12.30;;;4.00;;
41719;SDS011;27405;53.316;-6.294;2023-10-08T10:23:45;9.98;;;3.63;;
41719;SDS011;27405;53.316;-6.294;2023-10-08T10:26:22;10.00;;;4.20;;
41719;SDS011;27405;53.316;-6.294;2023-10-08T10:31:34;10.10;;;4.25;;
41719;SDS011;27405;53.316;-6.294;2023-10-08T10:34:04;7.78;;;4.00;;
41719;SDS011;27405;53.316;-6.294;2023-10-08T10:36:35;10.82;;;3.67;;
41719;SDS011;27405;53.316;-6.294;2023-10-08T10:39:02;7.68;;;3.92;;
41719;SDS011;27405;53.316;-6.294;2023-10-08T10:41:51;11.27;;;4.47;;
41719;SDS011;27405;53.316;-6.294;2023-10-08T10:44:39;10.80;;;4.70;;
41719;SDS011;27405;53.316;-6.294;2023-10-08T10:47:06;14.00;;;5.43;;
41719;SDS011;27405;53.316;-6.294;2023-10-08T10:49:41;17.40;;;5.20;;
41719;SDS011;27405;53.316;-6.294;2023-10-08T10:52:21;16.52;;;5.85;;
41719;SDS011;27405;53.316;-6.294;2023-10-08T10:55:03;16.25;;;6.18;;
41719;SDS011;27405;53.316;-6.294;2023-10-08T10:57:49;19.75;;;6.32;;
41719;SDS011;27405;53.316;-6.294;2023-10-08T11:00:24;17.75;;;6.55;;
41719;SDS011;27405;53.316;-6.294;2023-10-08T11:02:57;17.98;;;7.00;;
41719;SDS011;27405;53.316;-6.294;2023-10-08T11:05:46;16.97;;;6.67;;
41719;SDS011;27405;53.316;-6.294;2023-10-08T11:08:16;16.95;;;7.10;;
41719;SDS011;27405;53.316;-6.294;2023-10-08T11:10:43;15.13;;;6.95;;
41719;SDS011;27405;53.316;-6.294;2023-10-08T11:13:17;19.42;;;6.45;;
41719;SDS011;27405;53.316;-6.294;2023-10-08T11:15:52;17.25;;;6.80;;
41719;SDS011;27405;53.316;-6.294;2023-10-08T11:18:19;18.92;;;7.40;;
41719;SDS011;27405;53.316;-6.294;2023-10-08T11:20:47;20.95;;;7.75;;
41719;SDS011;27405;53.316;-6.294;2023-10-08T11:26:07;18.45;;;7.68;;
41719;SDS011;27405;53.316;-6.294;2023-10-08T11:28:35;17.88;;;7.28;;
41719;SDS011;27405;53.316;-6.294;2023-10-08T11:31:11;20.08;;;7.68;;
41719;SDS011;27405;53.316;-6.294;2023-10-08T11:33:40;17.45;;;7.53;;
41719;SDS011;27405;53.316;-6.294;2023-10-08T11:36:08;18.73;;;7.47;;
41719;SDS011;27405;53.316;-6.294;2023-10-08T11:38:47;22.80;;;7.90;;
41719;SDS011;27405;53.316;-6.294;2023-10-08T11:41:15;18.45;;;7.90;;
41719;SDS011;27405;53.316;-6.294;2023-10-08T11:43:48;17.90;;;7.10;;
41719;SDS011;27405;53.316;-6.294;2023-10-08T11:46:26;19.75;;;7.50;;
41719;SDS011;27405;53.316;-6.294;2023-10-08T11:49:20;18.05;;;7.22;;
41719;SDS011;27405;53.316;-6.294;2023-10-08T11:51:50;17.73;;;7.20;;
41719;SDS011;27405;53.316;-6.294;2023-10-08T11:54:23;15.43;;;6.32;;
41719;SDS011;27405;53.316;-6.294;2023-10-08T11:56:49;13.57;;;6.03;;
41719;SDS011;27405;53.316;-6.294;2023-10-08T11:59:15;14.30;;;5.85;;
41719;SDS011;27405;53.316;-6.294;2023-10-08T12:05:05;12.45;;;5.60;;
41719;SDS011;27405;53.316;-6.294;2023-10-08T12:07:32;13.82;;;5.70;;
41719;SDS011;27405;53.316;-6.294;2023-10-08T12:13:32;11.85;;;4.95;;
41719;SDS011;27405;53.316;-6.294;2023-10-08T12:15:58;12.00;;;4.72;;
41719;SDS011;27405;53.316;-6.294;2023-10-08T12:18:38;12.80;;;4.20;;
41719;SDS011;27405;53.316;-6.294;2023-10-08T12:21:08;13.13;;;4.60;;
41719;SDS011;27405;53.316;-6.294;2023-10-08T12:23:40;13.15;;;4.78;;
41719;SDS011;27405;53.316;-6.294;2023-10-08T12:26:11;11.50;;;4.53;;
41719;SDS011;27405;53.316;-6.294;2023-10-08T12:28:41;9.98;;;4.38;;
41719;SDS011;27405;53.316;-6.294;2023-10-08T12:31:11;10.07;;;4.43;;
41719;SDS011;27405;53.316;-6.294;2023-10-08T12:33:40;12.20;;;4.88;;
41719;SDS011;27405;53.316;-6.294;2023-10-08T12:36:08;15.50;;;5.05;;
41719;SDS011;27405;53.316;-6.294;2023-10-08T12:38:36;13.02;;;4.63;;
41719;SDS011;27405;53.316;-6.294;2023-10-08T12:41:07;14.35;;;4.80;;
41719;SDS011;27405;53.316;-6.294;2023-10-08T12:43:37;11.57;;;4.40;;
41719;SDS011;27405;53.316;-6.294;2023-10-08T12:46:07;12.63;;;4.47;;
41719;SDS011;27405;53.316;-6.294;2023-10-08T12:48:41;11.70;;;4.95;;
41719;SDS011;27405;53.316;-6.294;2023-10-08T12:51:09;13.15;;;4.68;;
41719;SDS011;27405;53.316;-6.294;2023-10-08T12:53:36;13.60;;;4.53;;
41719;SDS011;27405;53.316;-6.294;2023-10-08T12:56:03;10.85;;;4.65;;
41719;SDS011;27405;53.316;-6.294;2023-10-08T12:58:31;12.23;;;5.00;;
41719;SDS011;27405;53.316;-6.294;2023-10-08T13:01:07;13.15;;;5.05;;
41719;SDS011;27405;53.316;-6.294;2023-10-08T13:03:37;10.35;;;4.82;;
41719;SDS011;27405;53.316;-6.294;2023-10-08T13:06:07;12.75;;;5.20;;
41719;SDS011;27405;53.316;-6.294;2023-10-08T13:08:40;15.05;;;5.70;;
41719;SDS011;27405;53.316;-6.294;2023-10-08T13:11:06;19.65;;;6.03;;
41719;SDS011;27405;53.316;-6.294;2023-10-08T13:13:33;15.35;;;5.63;;
41719;SDS011;27405;53.316;-6.294;2023-10-08T13:15:59;14.40;;;5.63;;
41719;SDS011;27405;53.316;-6.294;2023-10-08T13:18:32;11.80;;;4.75;;
41719;SDS011;27405;53.316;-6.294;2023-10-08T13:20:59;12.30;;;5.05;;
41719;SDS011;27405;53.316;-6.294;2023-10-08T13:23:26;11.30;;;5.15;;
41719;SDS011;27405;53.316;-6.294;2023-10-08T13:25:54;10.75;;;5.28;;
41719;SDS011;27405;53.316;-6.294;2023-10-08T13:28:23;15.25;;;5.55;;
41719;SDS011;27405;53.316;-6.294;2023-10-08T13:30:52;14.18;;;5.03;;
41719;SDS011;27405;53.316;-6.294;2023-10-08T13:33:19;12.57;;;5.28;;
41719;SDS011;27405;53.316;-6.294;2023-10-08T13:35:47;13.88;;;5.40;;
41719;SDS011;27405;53.316;-6.294;2023-10-08T13:38:17;10.55;;;4.85;;
41719;SDS011;27405;53.316;-6.294;2023-10-08T13:40:48;11.52;;;4.95;;
41719;SDS011;27405;53.316;-6.294;2023-10-08T13:43:34;10.52;;;4.82;;
41719;SDS011;27405;53.316;-6.294;2023-10-08T13:46:01;15.18;;;5.20;;
41719;SDS011;27405;53.316;-6.294;2023-10-08T13:48:33;13.25;;;4.95;;
41719;SDS011;27405;53.316;-6.294;2023-10-08T13:51:03;11.40;;;4.68;;
41719;SDS011;27405;53.316;-6.294;2023-10-08T13:53:31;11.00;;;4.85;;
41719;SDS011;27405;53.316;-6.294;2023-10-08T13:56:01;14.07;;;5.65;;
41719;SDS011;27405;53.316;-6.294;2023-10-08T13:58:29;11.57;;;5.18;;
41719;SDS011;27405;53.316;-6.294;2023-10-08T14:00:59;11.80;;;4.90;;
41719;SDS011;27405;53.316;-6.294;2023-10-08T14:03:29;10.07;;;4.38;;
41719;SDS011;27405;53.316;-6.294;2023-10-08T14:05:58;12.68;;;4.80;;
41719;SDS011;27405;53.316;-6.294;2023-10-08T14:08:29;11.63;;;5.00;;
41719;SDS011;27405;53.316;-6.294;2023-10-08T14:10:56;12.82;;;4.93;;
41719;SDS011;27405;53.316;-6.294;2023-10-08T14:13:31;12.88;;;4.90;;
41719;SDS011;27405;53.316;-6.294;2023-10-08T14:16:01;14.27;;;4.78;;
41719;SDS011;27405;53.316;-6.294;2023-10-08T14:18:33;11.68;;;5.13;;
41719;SDS011;27405;53.316;-6.294;2023-10-08T14:21:13;11.43;;;4.45;;
41719;SDS011;27405;53.316;-6.294;2023-10-08T14:23:40;13.95;;;5.20;;
41719;SDS011;27405;53.316;-6.294;2023-10-08T14:26:07;12.02;;;4.95;;
41719;SDS011;27405;53.316;-6.294;2023-10-08T14:28:34;10.32;;;4.68;;
41719;SDS011;27405;53.316;-6.294;2023-10-08T14:31:16;12.65;;;5.40;;
41719;SDS011;27405;53.316;-6.294;2023-10-08T14:33:44;14.10;;;5.18;;
41719;SDS011;27405;53.316;-6.294;2023-10-08T14:36:45;14.55;;;5.57;;
41719;SDS011;27405;53.316;-6.294;2023-10-08T14:45:37;11.75;;;5.00;;
41719;SDS011;27405;53.316;-6.294;2023-10-08T14:50:36;10.68;;;4.78;;
41719;SDS011;27405;53.316;-6.294;2023-10-08T14:53:04;11.27;;;5.18;;
41719;SDS011;27405;53.316;-6.294;2023-10-08T14:55:30;10.77;;;4.70;;
41719;SDS011;27405;53.316;-6.294;2023-10-08T14:58:00;12.13;;;4.85;;
41719;SDS011;27405;53.316;-6.294;2023-10-08T15:00:33;13.10;;;5.13;;
41719;SDS011;27405;53.316;-6.294;2023-10-08T15:03:04;12.75;;;4.57;;
41719;SDS011;27405;53.316;-6.294;2023-10-08T15:08:52;13.02;;;5.18;;
41719;SDS011;27405;53.316;-6.294;2023-10-08T15:11:18;11.32;;;5.18;;
41719;SDS011;27405;53.316;-6.294;2023-10-08T15:13:44;15.73;;;6.00;;
41719;SDS011;27405;53.316;-6.294;2023-10-08T15:16:11;13.40;;;5.18;;
41719;SDS011;27405;53.316;-6.294;2023-10-08T15:18:38;12.75;;;5.40;;
41719;SDS011;27405;53.316;-6.294;2023-10-08T15:23:34;13.38;;;6.18;;
41719;SDS011;27405;53.316;-6.294;2023-10-08T15:26:01;14.73;;;5.65;;
41719;SDS011;27405;53.316;-6.294;2023-10-08T15:28:27;12.43;;;5.63;;
41719;SDS011;27405;53.316;-6.294;2023-10-08T15:30:53;13.90;;;5.10;;
41719;SDS011;27405;53.316;-6.294;2023-10-08T15:33:19;12.10;;;5.20;;
41719;SDS011;27405;53.316;-6.294;2023-10-08T15:35:45;14.25;;;5.47;;
41719;SDS011;27405;53.316;-6.294;2023-10-08T15:38:12;14.10;;;5.35;;
41719;SDS011;27405;53.316;-6.294;2023-10-08T15:40:37;12.55;;;5.45;;
41719;SDS011;27405;53.316;-6.294;2023-10-08T15:43:04;14.70;;;5.50;;
41719;SDS011;27405;53.316;-6.294;2023-10-08T15:45:30;14.55;;;5.22;;
41719;SDS011;27405;53.316;-6.294;2023-10-08T15:47:56;13.48;;;5.50;;
41719;SDS011;27405;53.316;-6.294;2023-10-08T15:50:22;14.70;;;5.40;;
41719;SDS011;27405;53.316;-6.294;2023-10-08T15:52:50;11.52;;;4.72;;
41719;SDS011;27405;53.316;-6.294;2023-10-08T15:55:16;12.02;;;5.15;;
41719;SDS011;27405;53.316;-6.294;2023-10-08T15:57:43;13.27;;;5.17;;
41719;SDS011;27405;53.316;-6.294;2023-10-08T16:00:10;13.00;;;5.65;;
41719;SDS011;27405;53.316;-6.294;2023-10-08T16:05:58;16.33;;;4.80;;
41719;SDS011;27405;53.316;-6.294;2023-10-08T16:08:24;13.70;;;5.28;;
41719;SDS011;27405;53.316;-6.294;2023-10-08T16:10:50;13.50;;;5.43;;
41719;SDS011;27405;53.316;-6.294;2023-10-08T16:13:15;14.75;;;5.90;;
41719;SDS011;27405;53.316;-6.294;2023-10-08T16:15:41;13.25;;;5.55;;
41719;SDS011;27405;53.316;-6.294;2023-10-08T16:18:07;17.95;;;5.93;;
41719;SDS011;27405;53.316;-6.294;2023-10-08T16:20:34;12.15;;;5.63;;
41719;SDS011;27405;53.316;-6.294;2023-10-08T16:23:00;10.55;;;5.28;;
41719;SDS011;27405;53.316;-6.294;2023-10-08T16:25:26;11.27;;;5.28;;
41719;SDS011;27405;53.316;-6.294;2023-10-08T16:27:52;11.75;;;5.18;;
41719;SDS011;27405;53.316;-6.294;2023-10-08T16:30:19;10.90;;;5.55;;
41719;SDS011;27405;53.316;-6.294;2023-10-08T16:32:57;14.55;;;5.43;;
41719;SDS011;27405;53.316;-6.294;2023-10-08T16:35:23;12.85;;;5.90;;
41719;SDS011;27405;53.316;-6.294;2023-10-08T16:37:49;11.30;;;5.45;;
41719;SDS011;27405;53.316;-6.294;2023-10-08T16:40:16;12.57;;;5.65;;
41719;SDS011;27405;53.316;-6.294;2023-10-08T16:42:45;14.73;;;5.90;;
41719;SDS011;27405;53.316;-6.294;2023-10-08T16:45:15;12.52;;;5.80;;
41719;SDS011;27405;53.316;-6.294;2023-10-08T16:47:48;14.18;;;5.88;;
41719;SDS011;27405;53.316;-6.294;2023-10-08T16:50:18;16.92;;;6.35;;
41719;SDS011;27405;53.316;-6.294;2023-10-08T16:52:45;13.23;;;6.03;;
41719;SDS011;27405;53.316;-6.294;2023-10-08T16:55:13;12.88;;;5.05;;
41719;SDS011;27405;53.316;-6.294;2023-10-08T16:57:39;11.95;;;6.05;;
41719;SDS011;27405;53.316;-6.294;2023-10-08T17:00:06;11.68;;;6.03;;
41719;SDS011;27405;53.316;-6.294;2023-10-08T17:02:36;14.85;;;6.07;;
41719;SDS011;27405;53.316;-6.294;2023-10-08T17:05:02;12.20;;;6.00;;
41719;SDS011;27405;53.316;-6.294;2023-10-08T17:07:32;11.35;;;6.00;;
41719;SDS011;27405;53.316;-6.294;2023-10-08T17:09:58;10.32;;;5.85;;
41719;SDS011;27405;53.316;-6.294;2023-10-08T17:12:24;15.27;;;6.57;;
41719;SDS011;27405;53.316;-6.294;2023-10-08T17:14:50;16.33;;;5.93;;
41719;SDS011;27405;53.316;-6.294;2023-10-08T17:17:17;13.80;;;6.55;;
41719;SDS011;27405;53.316;-6.294;2023-10-08T17:23:06;14.55;;;6.47;;
41719;SDS011;27405;53.316;-6.294;2023-10-08T17:25:32;14.45;;;6.57;;
41719;SDS011;27405;53.316;-6.294;2023-10-08T17:27:59;17.17;;;6.45;;
41719;SDS011;27405;53.316;-6.294;2023-10-08T17:30:25;13.48;;;5.93;;
41719;SDS011;27405;53.316;-6.294;2023-10-08T17:32:51;12.43;;;5.97;;
41719;SDS011;27405;53.316;-6.294;2023-10-08T17:35:17;14.30;;;6.28;;
41719;SDS011;27405;53.316;-6.294;2023-10-08T17:37:44;16.05;;;6.60;;
41719;SDS011;27405;53.316;-6.294;2023-10-08T17:40:11;16.13;;;6.82;;
41719;SDS011;27405;53.316;-6.294;2023-10-08T17:42:40;19.83;;;7.68;;
41719;SDS011;27405;53.316;-6.294;2023-10-08T17:45:07;18.45;;;7.80;;
41719;SDS011;27405;53.316;-6.294;2023-10-08T17:47:37;16.63;;;6.70;;
41719;SDS011;27405;53.316;-6.294;2023-10-08T17:50:04;16.17;;;7.15;;
41719;SDS011;27405;53.316;-6.294;2023-10-08T17:52:30;15.38;;;6.57;;
41719;SDS011;27405;53.316;-6.294;2023-10-08T17:54:56;13.18;;;6.18;;
41719;SDS011;27405;53.316;-6.294;2023-10-08T17:57:24;15.00;;;6.05;;
41719;SDS011;27405;53.316;-6.294;2023-10-08T17:59:51;15.15;;;6.45;;
41719;SDS011;27405;53.316;-6.294;2023-10-08T18:02:17;12.45;;;5.78;;
41719;SDS011;27405;53.316;-6.294;2023-10-08T18:04:43;18.23;;;6.72;;
41719;SDS011;27405;53.316;-6.294;2023-10-08T18:10:31;16.15;;;7.28;;
41719;SDS011;27405;53.316;-6.294;2023-10-08T18:12:59;16.13;;;7.70;;
41719;SDS011;27405;53.316;-6.294;2023-10-08T18:15:25;16.52;;;7.65;;
41719;SDS011;27405;53.316;-6.294;2023-10-08T18:17:53;15.70;;;7.47;;
41719;SDS011;27405;53.316;-6.294;2023-10-08T18:20:20;15.38;;;7.82;;
41719;SDS011;27405;53.316;-6.294;2023-10-08T18:22:58;15.07;;;7.97;;
41719;SDS011;27405;53.316;-6.294;2023-10-08T18:25:24;17.33;;;8.52;;
41719;SDS011;27405;53.316;-6.294;2023-10-08T18:27:54;18.35;;;8.35;;
41719;SDS011;27405;53.316;-6.294;2023-10-08T18:30:21;16.48;;;8.10;;
41719;SDS011;27405;53.316;-6.294;2023-10-08T18:32:47;15.73;;;8.38;;
41719;SDS011;27405;53.316;-6.294;2023-10-08T18:35:13;15.63;;;7.93;;
41719;SDS011;27405;53.316;-6.294;2023-10-08T18:37:40;15.18;;;8.63;;
41719;SDS011;27405;53.316;-6.294;2023-10-08T18:40:06;15.88;;;7.78;;
41719;SDS011;27405;53.316;-6.294;2023-10-08T18:42:44;16.88;;;7.20;;
41719;SDS011;27405;53.316;-6.294;2023-10-08T18:45:13;16.85;;;6.85;;
41719;SDS011;27405;53.316;-6.294;2023-10-08T18:47:42;15.07;;;6.32;;